sensor_id;sensor_type;location;lat;lon;timestamp;temperature;humidity
13848;DHT22;6994;49.752;6.094;2023-04-24T00:00:56;9.90;99.90
13848;DHT22;6994;49.752;6.094;2023-04-24T00:03:23;9.80;99.90
13848;DHT22;6994;49.752;6.094;2023-04-24T00:05:50;9.80;99.90
13848;DHT22;6994;49.752;6.094;2023-04-24T00:08:18;9.70;99.90
13848;DHT22;6994;49.752;6.094;2023-04-24T00:10:45;9.70;99.90
13848;DHT22;6994;49.752;6.094;2023-04-24T00:13:12;9.80;99.90
13848;DHT22;6994;49.752;6.094;2023-04-24T00:15:39;9.80;99.90
13848;DHT22;6994;49.752;6.094;2023-04-24T00:18:06;9.80;99.90
13848;DHT22;6994;49.752;6.094;2023-04-24T00:20:34;9.80;99.90
13848;DHT22;6994;49.752;6.094;2023-04-24T00:23:01;9.70;99.90
13848;DHT22;6994;49.752;6.094;2023-04-24T00:25:28;9.70;99.90
13848;DHT22;6994;49.752;6.094;2023-04-24T00:27:55;9.60;99.90
13848;DHT22;6994;49.752;6.094;2023-04-24T00:30:22;9.60;99.90
13848;DHT22;6994;49.752;6.094;2023-04-24T00:32:50;9.60;99.90
13848;DHT22;6994;49.752;6.094;2023-04-24T00:35:17;9.60;99.90
13848;DHT22;6994;49.752;6.094;2023-04-24T00:37:44;9.60;99.90
13848;DHT22;6994;49.752;6.094;2023-04-24T00:40:11;9.60;99.90
13848;DHT22;6994;49.752;6.094;2023-04-24T00:42:39;9.60;99.90
13848;DHT22;6994;49.752;6.094;2023-04-24T00:45:06;9.60;99.90
13848;DHT22;6994;49.752;6.094;2023-04-24T00:47:33;9.70;99.90
13848;DHT22;6994;49.752;6.094;2023-04-24T00:50:03;9.80;99.90
13848;DHT22;6994;49.752;6.094;2023-04-24T00:52:31;9.70;99.90
13848;DHT22;6994;49.752;6.094;2023-04-24T00:54:58;9.70;99.90
13848;DHT22;6994;49.752;6.094;2023-04-24T00:57:25;9.70;99.90
13848;DHT22;6994;49.752;6.094;2023-04-24T00:59:52;9.60;99.90
13848;DHT22;6994;49.752;6.094;2023-04-24T01:02:20;9.50;99.90
13848;DHT22;6994;49.752;6.094;2023-04-24T01:04:49;9.30;99.90
13848;DHT22;6994;49.752;6.094;2023-04-24T01:07:15;9.30;99.90
13848;DHT22;6994;49.752;6.094;2023-04-24T01:09:42;9.20;99.90
13848;DHT22;6994;49.752;6.094;2023-04-24T01:12:09;9.10;99.90
13848;DHT22;6994;49.752;6.094;2023-04-24T01:14:37;9.10;99.90
13848;DHT22;6994;49.752;6.094;2023-04-24T01:17:04;9.00;99.90
13848;DHT22;6994;49.752;6.094;2023-04-24T01:19:31;8.90;99.90
13848;DHT22;6994;49.752;6.094;2023-04-24T01:21:58;9.00;99.90
13848;DHT22;6994;49.752;6.094;2023-04-24T01:24:25;9.00;99.90
13848;DHT22;6994;49.752;6.094;2023-04-24T01:26:52;9.00;99.90
13848;DHT22;6994;49.752;6.094;2023-04-24T01:29:20;8.90;99.90
13848;DHT22;6994;49.752;6.094;2023-04-24T01:31:47;8.80;99.90
13848;DHT22;6994;49.752;6.094;2023-04-24T01:34:14;8.70;99.90
13848;DHT22;6994;49.752;6.094;2023-04-24T01:36:41;8.90;99.90
13848;DHT22;6994;49.752;6.094;2023-04-24T01:39:08;8.90;99.90
13848;DHT22;6994;49.752;6.094;2023-04-24T01:41:36;8.90;99.90
13848;DHT22;6994;49.752;6.094;2023-04-24T01:44:03;8.80;99.90
13848;DHT22;6994;49.752;6.094;2023-04-24T01:46:30;8.70;99.90
13848;DHT22;6994;49.752;6.094;2023-04-24T01:48:58;8.70;99.90
13848;DHT22;6994;49.752;6.094;2023-04-24T01:51:24;8.60;99.90
13848;DHT22;6994;49.752;6.094;2023-04-24T01:53:52;8.60;99.90
13848;DHT22;6994;49.752;6.094;2023-04-24T01:56:21;8.60;99.90
13848;DHT22;6994;49.752;6.094;2023-04-24T01:58:49;8.50;99.90
13848;DHT22;6994;49.752;6.094;2023-04-24T02:01:19;8.70;99.90
13848;DHT22;6994;49.752;6.094;2023-04-24T02:03:46;8.90;99.90
13848;DHT22;6994;49.752;6.094;2023-04-24T02:06:13;8.90;99.90
13848;DHT22;6994;49.752;6.094;2023-04-24T02:08:40;8.80;99.90
13848;DHT22;6994;49.752;6.094;2023-04-24T02:11:11;8.80;99.90
13848;DHT22;6994;49.752;6.094;2023-04-24T02:13:38;8.80;99.90
13848;DHT22;6994;49.752;6.094;2023-04-24T02:16:05;8.80;99.90
13848;DHT22;6994;49.752;6.094;2023-04-24T02:18:32;8.90;99.90
13848;DHT22;6994;49.752;6.094;2023-04-24T02:21:00;8.90;99.90
13848;DHT22;6994;49.752;6.094;2023-04-24T02:23:27;9.00;99.90
13848;DHT22;6994;49.752;6.094;2023-04-24T02:25:54;8.90;99.90
13848;DHT22;6994;49.752;6.094;2023-04-24T02:28:21;9.00;99.90
13848;DHT22;6994;49.752;6.094;2023-04-24T02:30:49;8.90;99.90
13848;DHT22;6994;49.752;6.094;2023-04-24T02:33:16;8.80;99.90
13848;DHT22;6994;49.752;6.094;2023-04-24T02:35:43;8.60;99.90
13848;DHT22;6994;49.752;6.094;2023-04-24T02:38:10;8.80;99.90
13848;DHT22;6994;49.752;6.094;2023-04-24T02:40:37;8.80;99.90
13848;DHT22;6994;49.752;6.094;2023-04-24T02:43:04;9.00;99.90
13848;DHT22;6994;49.752;6.094;2023-04-24T02:45:32;9.00;99.90
13848;DHT22;6994;49.752;6.094;2023-04-24T02:47:59;9.10;99.90
13848;DHT22;6994;49.752;6.094;2023-04-24T02:50:26;9.10;99.90
13848;DHT22;6994;49.752;6.094;2023-04-24T02:52:53;9.00;99.90
13848;DHT22;6994;49.752;6.094;2023-04-24T02:55:20;8.90;99.90
13848;DHT22;6994;49.752;6.094;2023-04-24T02:57:48;8.80;99.90
13848;DHT22;6994;49.752;6.094;2023-04-24T03:00:15;8.80;99.90
13848;DHT22;6994;49.752;6.094;2023-04-24T03:02:42;8.80;99.90
13848;DHT22;6994;49.752;6.094;2023-04-24T03:05:09;8.70;99.90
13848;DHT22;6994;49.752;6.094;2023-04-24T03:07:37;8.70;99.90
13848;DHT22;6994;49.752;6.094;2023-04-24T03:10:04;8.70;99.90
13848;DHT22;6994;49.752;6.094;2023-04-24T03:12:31;8.90;99.90
13848;DHT22;6994;49.752;6.094;2023-04-24T03:14:59;8.90;99.90
13848;DHT22;6994;49.752;6.094;2023-04-24T03:17:27;8.90;99.90
13848;DHT22;6994;49.752;6.094;2023-04-24T03:19:55;8.90;99.90
13848;DHT22;6994;49.752;6.094;2023-04-24T03:22:23;8.90;99.90
13848;DHT22;6994;49.752;6.094;2023-04-24T03:24:50;8.80;99.90
13848;DHT22;6994;49.752;6.094;2023-04-24T03:27:17;8.90;99.90
13848;DHT22;6994;49.752;6.094;2023-04-24T03:29:45;8.80;99.90
13848;DHT22;6994;49.752;6.094;2023-04-24T03:32:12;8.80;99.90
13848;DHT22;6994;49.752;6.094;2023-04-24T03:34:40;8.90;99.90
13848;DHT22;6994;49.752;6.094;2023-04-24T03:37:07;8.90;99.90
13848;DHT22;6994;49.752;6.094;2023-04-24T03:39:34;8.90;99.90
13848;DHT22;6994;49.752;6.094;2023-04-24T03:42:02;8.90;99.90
13848;DHT22;6994;49.752;6.094;2023-04-24T03:44:30;8.90;99.90
13848;DHT22;6994;49.752;6.094;2023-04-24T03:46:57;8.90;99.90
13848;DHT22;6994;49.752;6.094;2023-04-24T03:49:24;8.90;99.90
13848;DHT22;6994;49.752;6.094;2023-04-24T03:51:52;8.90;99.90
13848;DHT22;6994;49.752;6.094;2023-04-24T03:54:20;8.80;99.90
13848;DHT22;6994;49.752;6.094;2023-04-24T03:56:47;8.80;99.90
13848;DHT22;6994;49.752;6.094;2023-04-24T03:59:15;8.80;99.90
13848;DHT22;6994;49.752;6.094;2023-04-24T04:01:43;8.50;99.90
13848;DHT22;6994;49.752;6.094;2023-04-24T04:04:11;8.40;99.90
13848;DHT22;6994;49.752;6.094;2023-04-24T04:06:39;8.30;99.90
13848;DHT22;6994;49.752;6.094;2023-04-24T04:09:06;8.30;99.90
13848;DHT22;6994;49.752;6.094;2023-04-24T04:11:33;8.30;99.90
13848;DHT22;6994;49.752;6.094;2023-04-24T04:14:00;8.20;99.90
13848;DHT22;6994;49.752;6.094;2023-04-24T04:16:27;8.10;99.90
13848;DHT22;6994;49.752;6.094;2023-04-24T04:18:55;8.10;99.90
13848;DHT22;6994;49.752;6.094;2023-04-24T04:21:23;8.00;99.90
13848;DHT22;6994;49.752;6.094;2023-04-24T04:23:51;8.00;99.90
13848;DHT22;6994;49.752;6.094;2023-04-24T04:26:19;8.00;99.90
13848;DHT22;6994;49.752;6.094;2023-04-24T04:28:46;7.90;99.90
13848;DHT22;6994;49.752;6.094;2023-04-24T04:31:13;7.90;99.90
13848;DHT22;6994;49.752;6.094;2023-04-24T04:33:40;7.90;99.90
13848;DHT22;6994;49.752;6.094;2023-04-24T04:36:08;7.80;99.90
13848;DHT22;6994;49.752;6.094;2023-04-24T04:38:34;7.80;99.90
13848;DHT22;6994;49.752;6.094;2023-04-24T04:41:02;7.80;99.90
13848;DHT22;6994;49.752;6.094;2023-04-24T04:43:29;7.90;99.90
13848;DHT22;6994;49.752;6.094;2023-04-24T04:45:57;7.80;99.90
13848;DHT22;6994;49.752;6.094;2023-04-24T04:48:23;7.90;99.90
13848;DHT22;6994;49.752;6.094;2023-04-24T04:50:51;7.90;99.90
13848;DHT22;6994;49.752;6.094;2023-04-24T04:53:18;7.90;99.90
13848;DHT22;6994;49.752;6.094;2023-04-24T04:55:45;7.90;99.90
13848;DHT22;6994;49.752;6.094;2023-04-24T04:58:12;8.00;99.90
13848;DHT22;6994;49.752;6.094;2023-04-24T05:00:39;8.00;99.90
13848;DHT22;6994;49.752;6.094;2023-04-24T05:03:06;8.00;99.90
13848;DHT22;6994;49.752;6.094;2023-04-24T05:05:34;8.10;99.90
13848;DHT22;6994;49.752;6.094;2023-04-24T05:08:01;8.10;99.90
13848;DHT22;6994;49.752;6.094;2023-04-24T05:10:28;8.40;99.90
13848;DHT22;6994;49.752;6.094;2023-04-24T05:12:55;8.50;99.90
13848;DHT22;6994;49.752;6.094;2023-04-24T05:15:23;8.50;99.90
13848;DHT22;6994;49.752;6.094;2023-04-24T05:17:50;8.50;99.90
13848;DHT22;6994;49.752;6.094;2023-04-24T05:20:17;8.40;99.90
13848;DHT22;6994;49.752;6.094;2023-04-24T05:22:44;8.40;99.90
13848;DHT22;6994;49.752;6.094;2023-04-24T05:25:11;8.50;99.90
13848;DHT22;6994;49.752;6.094;2023-04-24T05:27:39;8.50;99.90
13848;DHT22;6994;49.752;6.094;2023-04-24T05:30:06;8.50;99.90
13848;DHT22;6994;49.752;6.094;2023-04-24T05:32:33;8.50;99.90
13848;DHT22;6994;49.752;6.094;2023-04-24T05:35:00;8.40;99.90
13848;DHT22;6994;49.752;6.094;2023-04-24T05:37:28;8.40;99.90
13848;DHT22;6994;49.752;6.094;2023-04-24T05:39:55;8.40;99.90
13848;DHT22;6994;49.752;6.094;2023-04-24T05:42:22;8.40;99.90
13848;DHT22;6994;49.752;6.094;2023-04-24T05:44:49;8.40;99.90
13848;DHT22;6994;49.752;6.094;2023-04-24T05:47:16;8.40;99.90
13848;DHT22;6994;49.752;6.094;2023-04-24T05:49:43;8.50;99.90
13848;DHT22;6994;49.752;6.094;2023-04-24T05:52:11;8.60;99.90
13848;DHT22;6994;49.752;6.094;2023-04-24T05:54:38;8.80;99.90
13848;DHT22;6994;49.752;6.094;2023-04-24T05:57:05;8.70;99.90
13848;DHT22;6994;49.752;6.094;2023-04-24T05:59:36;8.90;99.90
13848;DHT22;6994;49.752;6.094;2023-04-24T06:02:00;8.80;99.90
13848;DHT22;6994;49.752;6.094;2023-04-24T06:04:27;8.80;99.90
13848;DHT22;6994;49.752;6.094;2023-04-24T06:06:54;8.80;99.90
13848;DHT22;6994;49.752;6.094;2023-04-24T06:09:22;9.00;99.90
13848;DHT22;6994;49.752;6.094;2023-04-24T06:11:49;9.10;99.90
13848;DHT22;6994;49.752;6.094;2023-04-24T06:14:16;9.10;99.90
13848;DHT22;6994;49.752;6.094;2023-04-24T06:16:43;9.10;99.90
13848;DHT22;6994;49.752;6.094;2023-04-24T06:19:10;9.30;99.90
13848;DHT22;6994;49.752;6.094;2023-04-24T06:21:37;9.30;99.90
13848;DHT22;6994;49.752;6.094;2023-04-24T06:24:04;9.30;99.90
13848;DHT22;6994;49.752;6.094;2023-04-24T06:26:32;9.30;99.90
13848;DHT22;6994;49.752;6.094;2023-04-24T06:28:59;9.30;99.90
13848;DHT22;6994;49.752;6.094;2023-04-24T06:31:26;9.30;99.90
13848;DHT22;6994;49.752;6.094;2023-04-24T06:33:53;9.30;99.90
13848;DHT22;6994;49.752;6.094;2023-04-24T06:36:20;9.20;99.90
13848;DHT22;6994;49.752;6.094;2023-04-24T06:38:48;9.20;99.90
13848;DHT22;6994;49.752;6.094;2023-04-24T06:41:15;9.10;99.90
13848;DHT22;6994;49.752;6.094;2023-04-24T06:43:42;9.30;99.90
13848;DHT22;6994;49.752;6.094;2023-04-24T06:46:09;9.30;99.90
13848;DHT22;6994;49.752;6.094;2023-04-24T06:48:36;9.30;99.90
13848;DHT22;6994;49.752;6.094;2023-04-24T06:51:04;9.30;99.90
13848;DHT22;6994;49.752;6.094;2023-04-24T06:53:31;9.30;99.90
13848;DHT22;6994;49.752;6.094;2023-04-24T06:55:58;9.20;99.90
13848;DHT22;6994;49.752;6.094;2023-04-24T06:58:25;9.30;99.90
13848;DHT22;6994;49.752;6.094;2023-04-24T07:00:52;9.30;99.90
13848;DHT22;6994;49.752;6.094;2023-04-24T07:03:20;9.20;99.90
13848;DHT22;6994;49.752;6.094;2023-04-24T07:05:47;9.10;99.90
13848;DHT22;6994;49.752;6.094;2023-04-24T07:08:15;9.00;99.90
13848;DHT22;6994;49.752;6.094;2023-04-24T07:10:42;9.00;99.90
13848;DHT22;6994;49.752;6.094;2023-04-24T07:13:09;8.90;99.90
13848;DHT22;6994;49.752;6.094;2023-04-24T07:15:36;8.90;99.90
13848;DHT22;6994;49.752;6.094;2023-04-24T07:18:04;8.80;99.90
13848;DHT22;6994;49.752;6.094;2023-04-24T07:20:31;8.80;99.90
13848;DHT22;6994;49.752;6.094;2023-04-24T07:22:58;8.70;99.90
13848;DHT22;6994;49.752;6.094;2023-04-24T07:25:25;8.70;99.90
13848;DHT22;6994;49.752;6.094;2023-04-24T07:27:52;8.70;99.90
13848;DHT22;6994;49.752;6.094;2023-04-24T07:30:20;8.70;99.90
13848;DHT22;6994;49.752;6.094;2023-04-24T07:32:47;8.70;99.90
13848;DHT22;6994;49.752;6.094;2023-04-24T07:35:14;8.70;99.90
13848;DHT22;6994;49.752;6.094;2023-04-24T07:37:41;8.70;99.90
13848;DHT22;6994;49.752;6.094;2023-04-24T07:40:08;8.70;99.90
13848;DHT22;6994;49.752;6.094;2023-04-24T07:42:36;8.70;99.90
13848;DHT22;6994;49.752;6.094;2023-04-24T07:45:04;8.70;99.90
13848;DHT22;6994;49.752;6.094;2023-04-24T07:47:31;8.70;99.90
13848;DHT22;6994;49.752;6.094;2023-04-24T07:49:58;8.70;99.90
13848;DHT22;6994;49.752;6.094;2023-04-24T07:52:25;8.70;99.90
13848;DHT22;6994;49.752;6.094;2023-04-24T07:54:52;9.00;99.90
13848;DHT22;6994;49.752;6.094;2023-04-24T07:57:20;9.10;99.90
13848;DHT22;6994;49.752;6.094;2023-04-24T07:59:47;9.10;99.90
13848;DHT22;6994;49.752;6.094;2023-04-24T08:02:14;9.10;99.90
13848;DHT22;6994;49.752;6.094;2023-04-24T08:04:41;9.10;99.90
13848;DHT22;6994;49.752;6.094;2023-04-24T08:07:08;9.20;99.90
13848;DHT22;6994;49.752;6.094;2023-04-24T08:09:36;9.20;99.90
13848;DHT22;6994;49.752;6.094;2023-04-24T08:12:03;9.30;99.90
13848;DHT22;6994;49.752;6.094;2023-04-24T08:14:30;9.30;99.90
13848;DHT22;6994;49.752;6.094;2023-04-24T08:16:58;9.30;99.90
13848;DHT22;6994;49.752;6.094;2023-04-24T08:19:25;9.30;99.90
13848;DHT22;6994;49.752;6.094;2023-04-24T08:21:52;9.20;99.90
13848;DHT22;6994;49.752;6.094;2023-04-24T08:24:20;9.20;99.90
13848;DHT22;6994;49.752;6.094;2023-04-24T08:26:47;9.10;99.90
13848;DHT22;6994;49.752;6.094;2023-04-24T08:29:15;9.10;99.90
13848;DHT22;6994;49.752;6.094;2023-04-24T08:31:42;9.10;99.90
13848;DHT22;6994;49.752;6.094;2023-04-24T08:34:09;9.10;99.90
13848;DHT22;6994;49.752;6.094;2023-04-24T08:36:37;9.40;99.90
13848;DHT22;6994;49.752;6.094;2023-04-24T08:39:05;9.60;99.90
13848;DHT22;6994;49.752;6.094;2023-04-24T08:41:33;9.50;99.90
13848;DHT22;6994;49.752;6.094;2023-04-24T08:44:00;9.80;99.90
13848;DHT22;6994;49.752;6.094;2023-04-24T08:46:28;10.20;99.90
13848;DHT22;6994;49.752;6.094;2023-04-24T08:48:55;10.20;99.90
13848;DHT22;6994;49.752;6.094;2023-04-24T08:51:22;10.40;99.90
13848;DHT22;6994;49.752;6.094;2023-04-24T08:53:49;10.50;99.90
13848;DHT22;6994;49.752;6.094;2023-04-24T08:56:16;10.60;99.90
13848;DHT22;6994;49.752;6.094;2023-04-24T08:58:43;10.60;99.90
13848;DHT22;6994;49.752;6.094;2023-04-24T09:01:11;10.70;99.90
13848;DHT22;6994;49.752;6.094;2023-04-24T09:03:38;10.80;99.90
13848;DHT22;6994;49.752;6.094;2023-04-24T09:06:05;10.90;99.90
13848;DHT22;6994;49.752;6.094;2023-04-24T09:08:32;11.00;99.90
13848;DHT22;6994;49.752;6.094;2023-04-24T09:11:00;11.30;99.90
13848;DHT22;6994;49.752;6.094;2023-04-24T09:13:27;11.70;99.90
13848;DHT22;6994;49.752;6.094;2023-04-24T09:15:54;11.80;99.90
13848;DHT22;6994;49.752;6.094;2023-04-24T09:18:21;11.70;99.90
13848;DHT22;6994;49.752;6.094;2023-04-24T09:21:01;11.70;99.90
13848;DHT22;6994;49.752;6.094;2023-04-24T09:23:28;12.10;99.90
13848;DHT22;6994;49.752;6.094;2023-04-24T09:25:55;12.30;99.90
13848;DHT22;6994;49.752;6.094;2023-04-24T09:28:38;12.40;99.90
13848;DHT22;6994;49.752;6.094;2023-04-24T09:31:14;12.50;99.90
13848;DHT22;6994;49.752;6.094;2023-04-24T09:33:47;12.90;99.90
13848;DHT22;6994;49.752;6.094;2023-04-24T09:36:08;12.80;99.90
13848;DHT22;6994;49.752;6.094;2023-04-24T09:38:35;12.90;99.90
13848;DHT22;6994;49.752;6.094;2023-04-24T09:41:03;12.70;99.90
13848;DHT22;6994;49.752;6.094;2023-04-24T09:43:30;12.50;99.90
13848;DHT22;6994;49.752;6.094;2023-04-24T09:45:57;12.50;99.90
13848;DHT22;6994;49.752;6.094;2023-04-24T09:48:34;12.50;99.90
13848;DHT22;6994;49.752;6.094;2023-04-24T09:51:01;12.50;99.90
13848;DHT22;6994;49.752;6.094;2023-04-24T09:53:28;12.80;99.90
13848;DHT22;6994;49.752;6.094;2023-04-24T09:55:55;13.20;99.90
13848;DHT22;6994;49.752;6.094;2023-04-24T09:58:25;13.20;99.90
13848;DHT22;6994;49.752;6.094;2023-04-24T10:00:55;13.10;99.90
13848;DHT22;6994;49.752;6.094;2023-04-24T10:03:25;13.20;99.90
13848;DHT22;6994;49.752;6.094;2023-04-24T10:05:57;13.30;99.90
13848;DHT22;6994;49.752;6.094;2023-04-24T10:08:23;13.60;99.90
13848;DHT22;6994;49.752;6.094;2023-04-24T10:10:50;13.60;99.90
13848;DHT22;6994;49.752;6.094;2023-04-24T10:13:17;13.70;99.90
13848;DHT22;6994;49.752;6.094;2023-04-24T10:15:44;13.80;99.90
13848;DHT22;6994;49.752;6.094;2023-04-24T10:18:11;13.80;99.90
13848;DHT22;6994;49.752;6.094;2023-04-24T10:20:39;13.70;99.90
13848;DHT22;6994;49.752;6.094;2023-04-24T10:23:06;13.50;99.90
13848;DHT22;6994;49.752;6.094;2023-04-24T10:25:34;13.30;99.90
13848;DHT22;6994;49.752;6.094;2023-04-24T10:28:01;13.20;99.90
13848;DHT22;6994;49.752;6.094;2023-04-24T10:30:29;13.10;99.90
13848;DHT22;6994;49.752;6.094;2023-04-24T10:32:55;13.10;99.90
13848;DHT22;6994;49.752;6.094;2023-04-24T10:35:22;13.10;99.90
13848;DHT22;6994;49.752;6.094;2023-04-24T10:37:50;13.00;99.90
13848;DHT22;6994;49.752;6.094;2023-04-24T10:40:19;12.80;99.90
13848;DHT22;6994;49.752;6.094;2023-04-24T10:42:51;12.70;99.90
13848;DHT22;6994;49.752;6.094;2023-04-24T10:45:20;12.90;99.90
13848;DHT22;6994;49.752;6.094;2023-04-24T10:47:59;13.10;99.90
13848;DHT22;6994;49.752;6.094;2023-04-24T10:50:26;13.10;99.90
13848;DHT22;6994;49.752;6.094;2023-04-24T10:52:52;13.20;99.90
13848;DHT22;6994;49.752;6.094;2023-04-24T10:55:42;13.20;99.90
13848;DHT22;6994;49.752;6.094;2023-04-24T10:58:08;13.30;99.90
13848;DHT22;6994;49.752;6.094;2023-04-24T11:00:39;13.30;99.90
13848;DHT22;6994;49.752;6.094;2023-04-24T11:03:06;13.40;99.90
13848;DHT22;6994;49.752;6.094;2023-04-24T11:05:53;13.60;99.90
13848;DHT22;6994;49.752;6.094;2023-04-24T11:08:21;13.70;99.90
13848;DHT22;6994;49.752;6.094;2023-04-24T11:10:46;14.00;99.90
13848;DHT22;6994;49.752;6.094;2023-04-24T11:13:14;14.50;99.90
13848;DHT22;6994;49.752;6.094;2023-04-24T11:15:43;14.40;99.90
13848;DHT22;6994;49.752;6.094;2023-04-24T11:18:14;14.30;99.90
13848;DHT22;6994;49.752;6.094;2023-04-24T11:20:44;14.10;99.90
13848;DHT22;6994;49.752;6.094;2023-04-24T11:23:12;13.90;99.90
13848;DHT22;6994;49.752;6.094;2023-04-24T11:25:38;13.90;99.90
13848;DHT22;6994;49.752;6.094;2023-04-24T11:28:06;13.70;99.90
13848;DHT22;6994;49.752;6.094;2023-04-24T11:30:33;13.40;99.90
13848;DHT22;6994;49.752;6.094;2023-04-24T11:33:03;13.10;99.90
13848;DHT22;6994;49.752;6.094;2023-04-24T11:35:30;12.90;99.90
13848;DHT22;6994;49.752;6.094;2023-04-24T11:37:57;12.80;99.90
13848;DHT22;6994;49.752;6.094;2023-04-24T11:40:25;12.80;99.90
13848;DHT22;6994;49.752;6.094;2023-04-24T11:42:54;13.00;99.90
13848;DHT22;6994;49.752;6.094;2023-04-24T11:45:23;13.20;99.90
13848;DHT22;6994;49.752;6.094;2023-04-24T11:47:49;13.50;99.90
13848;DHT22;6994;49.752;6.094;2023-04-24T11:50:17;13.80;99.90
13848;DHT22;6994;49.752;6.094;2023-04-24T11:52:44;14.00;99.90
13848;DHT22;6994;49.752;6.094;2023-04-24T11:57:48;14.90;99.90
13848;DHT22;6994;49.752;6.094;2023-04-24T12:00:18;15.50;99.90
13848;DHT22;6994;49.752;6.094;2023-04-24T12:02:44;15.90;99.90
13848;DHT22;6994;49.752;6.094;2023-04-24T12:05:21;16.60;99.90
13848;DHT22;6994;49.752;6.094;2023-04-24T12:07:48;17.50;99.90
13848;DHT22;6994;49.752;6.094;2023-04-24T12:10:19;17.90;99.90
13848;DHT22;6994;49.752;6.094;2023-04-24T12:12:42;18.70;99.90
13848;DHT22;6994;49.752;6.094;2023-04-24T12:15:10;19.20;99.90
13848;DHT22;6994;49.752;6.094;2023-04-24T12:17:37;20.40;98.60
13848;DHT22;6994;49.752;6.094;2023-04-24T12:20:05;20.50;97.20
13848;DHT22;6994;49.752;6.094;2023-04-24T12:22:47;20.20;96.90
13848;DHT22;6994;49.752;6.094;2023-04-24T12:25:18;19.80;97.60
13848;DHT22;6994;49.752;6.094;2023-04-24T12:27:41;19.50;96.50
13848;DHT22;6994;49.752;6.094;2023-04-24T12:30:18;19.30;96.30
13848;DHT22;6994;49.752;6.094;2023-04-24T12:32:40;19.10;95.90
13848;DHT22;6994;49.752;6.094;2023-04-24T12:35:04;18.80;97.20
13848;DHT22;6994;49.752;6.094;2023-04-24T12:37:32;18.80;97.20
13848;DHT22;6994;49.752;6.094;2023-04-24T12:39:59;18.70;96.40
13848;DHT22;6994;49.752;6.094;2023-04-24T12:42:27;18.60;96.40
13848;DHT22;6994;49.752;6.094;2023-04-24T12:45:03;18.70;96.40
13848;DHT22;6994;49.752;6.094;2023-04-24T12:47:27;18.90;95.90
13848;DHT22;6994;49.752;6.094;2023-04-24T12:49:54;19.70;94.50
13848;DHT22;6994;49.752;6.094;2023-04-24T12:52:24;19.60;95.40
13848;DHT22;6994;49.752;6.094;2023-04-24T12:54:54;19.30;96.00
13848;DHT22;6994;49.752;6.094;2023-04-24T12:57:21;19.30;95.90
13848;DHT22;6994;49.752;6.094;2023-04-24T12:59:48;19.30;94.90
13848;DHT22;6994;49.752;6.094;2023-04-24T13:02:16;18.90;95.30
13848;DHT22;6994;49.752;6.094;2023-04-24T13:04:45;18.50;95.50
13848;DHT22;6994;49.752;6.094;2023-04-24T13:07:12;18.50;95.50
13848;DHT22;6994;49.752;6.094;2023-04-24T13:09:39;18.50;95.80
13848;DHT22;6994;49.752;6.094;2023-04-24T13:12:06;18.90;95.50
13848;DHT22;6994;49.752;6.094;2023-04-24T13:14:33;19.50;95.40
13848;DHT22;6994;49.752;6.094;2023-04-24T13:17:01;21.40;94.00
13848;DHT22;6994;49.752;6.094;2023-04-24T13:19:29;22.30;91.70
13848;DHT22;6994;49.752;6.094;2023-04-24T13:21:57;22.30;91.70
13848;DHT22;6994;49.752;6.094;2023-04-24T13:24:24;22.70;91.20
13848;DHT22;6994;49.752;6.094;2023-04-24T13:26:54;23.20;88.80
13848;DHT22;6994;49.752;6.094;2023-04-24T13:29:22;24.20;82.10
13848;DHT22;6994;49.752;6.094;2023-04-24T13:31:52;24.10;82.00
13848;DHT22;6994;49.752;6.094;2023-04-24T13:34:19;23.70;83.60
13848;DHT22;6994;49.752;6.094;2023-04-24T13:36:46;22.60;84.30
13848;DHT22;6994;49.752;6.094;2023-04-24T13:39:13;21.50;86.90
13848;DHT22;6994;49.752;6.094;2023-04-24T13:41:41;20.40;88.20
13848;DHT22;6994;49.752;6.094;2023-04-24T13:44:08;19.40;90.90
13848;DHT22;6994;49.752;6.094;2023-04-24T13:46:35;18.50;92.20
13848;DHT22;6994;49.752;6.094;2023-04-24T13:49:02;17.70;93.40
13848;DHT22;6994;49.752;6.094;2023-04-24T13:51:29;17.00;95.30
13848;DHT22;6994;49.752;6.094;2023-04-24T13:53:57;16.30;96.80
13848;DHT22;6994;49.752;6.094;2023-04-24T13:56:24;15.60;98.40
13848;DHT22;6994;49.752;6.094;2023-04-24T13:58:51;15.00;99.60
13848;DHT22;6994;49.752;6.094;2023-04-24T14:01:18;14.50;99.90
13848;DHT22;6994;49.752;6.094;2023-04-24T14:03:45;14.00;99.90
13848;DHT22;6994;49.752;6.094;2023-04-24T14:06:13;13.60;99.90
13848;DHT22;6994;49.752;6.094;2023-04-24T14:08:40;13.20;99.90
13848;DHT22;6994;49.752;6.094;2023-04-24T14:11:07;12.80;99.90
13848;DHT22;6994;49.752;6.094;2023-04-24T14:13:35;12.40;99.90
13848;DHT22;6994;49.752;6.094;2023-04-24T14:16:01;12.20;99.90
13848;DHT22;6994;49.752;6.094;2023-04-24T14:18:29;12.00;99.90
13848;DHT22;6994;49.752;6.094;2023-04-24T14:20:56;11.90;99.90
13848;DHT22;6994;49.752;6.094;2023-04-24T14:23:23;11.80;99.90
13848;DHT22;6994;49.752;6.094;2023-04-24T14:25:50;11.80;99.90
13848;DHT22;6994;49.752;6.094;2023-04-24T14:28:18;12.20;99.90
13848;DHT22;6994;49.752;6.094;2023-04-24T14:30:45;12.50;99.90
13848;DHT22;6994;49.752;6.094;2023-04-24T14:33:12;12.70;99.90
13848;DHT22;6994;49.752;6.094;2023-04-24T14:35:40;13.00;99.90
13848;DHT22;6994;49.752;6.094;2023-04-24T14:38:06;13.60;99.90
13848;DHT22;6994;49.752;6.094;2023-04-24T14:40:34;13.80;99.90
13848;DHT22;6994;49.752;6.094;2023-04-24T14:43:02;13.80;99.90
13848;DHT22;6994;49.752;6.094;2023-04-24T14:45:29;13.80;99.90
13848;DHT22;6994;49.752;6.094;2023-04-24T14:47:57;13.80;99.90
13848;DHT22;6994;49.752;6.094;2023-04-24T14:50:24;13.60;99.90
13848;DHT22;6994;49.752;6.094;2023-04-24T14:52:51;13.60;99.90
13848;DHT22;6994;49.752;6.094;2023-04-24T14:55:18;13.50;99.90
13848;DHT22;6994;49.752;6.094;2023-04-24T14:57:45;13.20;99.90
13848;DHT22;6994;49.752;6.094;2023-04-24T15:00:13;13.00;99.90
13848;DHT22;6994;49.752;6.094;2023-04-24T15:02:40;12.90;99.90
13848;DHT22;6994;49.752;6.094;2023-04-24T15:05:07;12.70;99.90
13848;DHT22;6994;49.752;6.094;2023-04-24T15:07:35;12.40;99.90
13848;DHT22;6994;49.752;6.094;2023-04-24T15:10:03;12.40;99.90
13848;DHT22;6994;49.752;6.094;2023-04-24T15:12:30;12.20;99.90
13848;DHT22;6994;49.752;6.094;2023-04-24T15:14:57;12.00;99.90
13848;DHT22;6994;49.752;6.094;2023-04-24T15:17:24;12.00;99.90
13848;DHT22;6994;49.752;6.094;2023-04-24T15:19:51;12.10;99.90
13848;DHT22;6994;49.752;6.094;2023-04-24T15:22:19;12.80;99.90
13848;DHT22;6994;49.752;6.094;2023-04-24T15:24:46;13.30;99.90
13848;DHT22;6994;49.752;6.094;2023-04-24T15:27:13;13.70;99.90
13848;DHT22;6994;49.752;6.094;2023-04-24T15:29:41;13.90;99.90
13848;DHT22;6994;49.752;6.094;2023-04-24T15:32:08;13.80;99.90
13848;DHT22;6994;49.752;6.094;2023-04-24T15:34:35;13.80;99.90
13848;DHT22;6994;49.752;6.094;2023-04-24T15:37:03;13.70;99.90
13848;DHT22;6994;49.752;6.094;2023-04-24T15:39:30;13.70;99.90
13848;DHT22;6994;49.752;6.094;2023-04-24T15:41:57;13.70;99.90
13848;DHT22;6994;49.752;6.094;2023-04-24T15:44:25;13.70;99.90
13848;DHT22;6994;49.752;6.094;2023-04-24T15:46:52;14.10;99.90
13848;DHT22;6994;49.752;6.094;2023-04-24T15:49:19;14.20;99.90
13848;DHT22;6994;49.752;6.094;2023-04-24T15:51:46;14.50;99.90
13848;DHT22;6994;49.752;6.094;2023-04-24T15:54:13;14.80;99.90
13848;DHT22;6994;49.752;6.094;2023-04-24T15:56:41;14.60;99.90
13848;DHT22;6994;49.752;6.094;2023-04-24T15:59:08;14.40;99.90